Time;durP1;ratioP1;P1;durP2;ratioP2;P2;SDS_P1;SDS_P2;PMS_P1;PMS_P2;Temp;Humidity;BMP_temperature;BMP_pressure;BME280_temperature;BME280_humidity;BME280_pressure;Samples;Min_cycle;Max_cycle;Signal;HPM_P1;HPM_P2
2023/12/18 00:02:16;;;;;;;1.45;1.35;;;9.70;99.90;;;;;;4976874;28;20054;-68
2023/12/18 00:04:41;;;;;;;0.32;0.32;;;9.60;99.90;;;;;;4962970;28;20043;-68
2023/12/18 00:07:07;;;;;;;0.63;0.63;;;9.60;99.90;;;;;;4960766;28;20407;-68
2023/12/18 00:09:33;;;;;;;0.75;0.75;;;9.60;99.90;;;;;;4972199;28;20046;-69
2023/12/18 00:11:58;;;;;;;0.80;0.40;;;9.60;99.90;;;;;;4976656;28;20034;-68
2023/12/18 00:14:24;;;;;;;2.28;1.65;;;9.60;99.90;;;;;;4959505;28;20054;-68
2023/12/18 00:16:49;;;;;;;0.10;0.10;;;9.60;99.90;;;;;;4964727;28;20066;-68
2023/12/18 00:19:15;;;;;;;0.03;0.03;;;9.60;99.90;;;;;;4963316;28;20047;-68
2023/12/18 00:21:40;;;;;;;0.20;0.20;;;9.60;99.90;;;;;;4959816;28;20170;-68
2023/12/18 00:24:06;;;;;;;2.55;1.58;;;9.60;99.90;;;;;;4954226;28;20046;-68
2023/12/18 00:26:32;;;;;;;0.70;0.70;;;9.60;99.90;;;;;;4974920;28;20074;-68
2023/12/18 00:28:57;;;;;;;0.32;0.32;;;9.60;99.90;;;;;;4961078;28;21242;-68
2023/12/18 00:31:23;;;;;;;0.10;0.10;;;9.50;99.90;;;;;;4966057;28;20041;-68
2023/12/18 00:33:48;;;;;;;0.17;0.17;;;9.60;99.90;;;;;;4968751;28;20553;-68
2023/12/18 00:36:14;;;;;;;0.88;0.88;;;9.60;99.90;;;;;;4990305;28;20043;-68
2023/12/18 00:38:40;;;;;;;1.25;1.13;;;9.60;99.90;;;;;;4964137;28;20043;-68
2023/12/18 00:41:05;;;;;;;2.38;1.83;;;9.60;99.90;;;;;;4971424;28;20094;-68
2023/12/18 00:43:31;;;;;;;5.72;1.77;;;9.60;99.90;;;;;;4965404;28;20039;-68
2023/12/18 00:45:57;;;;;;;0.52;0.52;;;9.60;99.90;;;;;;4969875;28;20061;-68
2023/12/18 00:48:22;;;;;;;0.13;0.13;;;9.60;99.90;;;;;;4970202;28;20047;-68
2023/12/18 00:50:48;;;;;;;0.20;0.20;;;9.60;99.90;;;;;;4966737;28;20042;-68
2023/12/18 00:53:16;;;;;;;0.25;0.25;;;9.60;99.90;;;;;;4974440;28;20043;-68
2023/12/18 00:55:43;;;;;;;0.10;0.10;;;9.60;99.90;;;;;;4964284;28;20438;-68
2023/12/18 00:58:09;;;;;;;4.28;1.85;;;9.60;99.90;;;;;;4970284;28;20050;-68
2023/12/18 01:00:34;;;;;;;0.30;0.30;;;9.60;99.90;;;;;;4962128;28;20051;-68
2023/12/18 01:03:00;;;;;;;0.10;0.10;;;9.60;99.90;;;;;;4969179;28;20065;-68
2023/12/18 01:05:25;;;;;;;0.10;0.10;;;9.60;99.90;;;;;;4956609;28;20054;-68
2023/12/18 01:07:51;;;;;;;0.20;0.20;;;9.60;99.90;;;;;;4973132;28;20139;-68
2023/12/18 01:10:16;;;;;;;0.10;0.10;;;9.60;99.90;;;;;;4976270;28;20046;-68
2023/12/18 01:12:42;;;;;;;0.10;0.10;;;9.60;99.90;;;;;;4977650;28;20484;-68
2023/12/18 01:15:08;;;;;;;0.55;0.47;;;9.60;99.90;;;;;;4975649;28;20078;-68
2023/12/18 01:17:33;;;;;;;0.45;0.45;;;9.60;99.90;;;;;;4963778;28;20048;-68
2023/12/18 01:20:00;;;;;;;0.20;0.20;;;9.60;99.90;;;;;;4963935;28;20034;-68
2023/12/18 01:22:25;;;;;;;0.40;0.40;;;9.60;99.90;;;;;;4968246;28;20557;-68
2023/12/18 01:24:51;;;;;;;0.20;0.20;;;9.60;99.90;;;;;;4974543;28;20054;-68
2023/12/18 01:27:16;;;;;;;0.35;0.35;;;9.60;99.90;;;;;;4976600;28;20074;-68
2023/12/18 01:29:42;;;;;;;0.10;0.10;;;9.60;99.90;;;;;;4966253;28;20051;-68
2023/12/18 01:32:08;;;;;;;0.10;0.10;;;9.60;99.90;;;;;;4973795;28;20058;-68
2023/12/18 01:34:34;;;;;;;0.10;0.10;;;9.60;99.90;;;;;;4967036;28;20130;-68
2023/12/18 01:37:00;;;;;;;6.60;1.70;;;9.60;99.90;;;;;;4969595;28;20142;-68
2023/12/18 01:39:25;;;;;;;0.10;0.10;;;9.60;99.90;;;;;;4970398;28;20081;-68
2023/12/18 01:41:51;;;;;;;0.08;0.08;;;9.60;99.90;;;;;;4980656;28;20121;-68
2023/12/18 01:44:16;;;;;;;0.13;0.13;;;9.70;99.90;;;;;;4970144;28;20039;-68
2023/12/18 01:46:43;;;;;;;0.10;0.10;;;9.70;99.90;;;;;;4973096;28;20043;-68
2023/12/18 01:49:09;;;;;;;0.10;0.10;;;9.60;99.90;;;;;;4973521;28;20141;-68
2023/12/18 01:51:35;;;;;;;0.10;0.10;;;9.60;99.90;;;;;;4977649;28;20509;-68
2023/12/18 01:54:01;;;;;;;0.10;0.10;;;9.60;99.90;;;;;;4972688;28;20053;-68
2023/12/18 01:56:30;;;;;;;0.10;0.10;;;9.60;99.90;;;;;;4976131;28;20057;-68
2023/12/18 01:58:59;;;;;;;0.03;0.03;;;9.60;99.90;;;;;;4965177;28;20046;-68
2023/12/18 02:01:26;;;;;;;0.10;0.10;;;9.60;99.90;;;;;;4963835;28;20513;-68
2023/12/18 02:03:53;;;;;;;0.25;0.25;;;9.60;99.90;;;;;;4977406;28;20051;-68
2023/12/18 02:06:19;;;;;;;1.55;0.68;;;9.60;99.90;;;;;;4982988;28;20038;-68
2023/12/18 02:08:45;;;;;;;0.10;0.10;;;9.60;99.90;;;;;;4971748;28;20369;-68
2023/12/18 02:11:12;;;;;;;1.08;0.90;;;9.60;99.90;;;;;;4966077;28;20096;-67
2023/12/18 02:13:39;;;;;;;0.20;0.20;;;9.60;99.90;;;;;;4963411;28;20103;-68
2023/12/18 02:16:05;;;;;;;0.20;0.20;;;9.60;99.90;;;;;;4974078;28;20065;-68
2023/12/18 02:18:31;;;;;;;0.00;0.00;;;9.60;99.90;;;;;;4971231;28;20130;-68
2023/12/18 02:20:57;;;;;;;1.30;1.20;;;9.60;99.90;;;;;;4971084;28;20043;-68
2023/12/18 02:23:22;;;;;;;0.38;0.38;;;9.70;99.90;;;;;;4977193;28;20047;-68
2023/12/18 02:25:48;;;;;;;0.10;0.10;;;9.60;99.90;;;;;;4981775;28;20047;-68
2023/12/18 02:28:16;;;;;;;0.10;0.10;;;9.60;99.90;;;;;;4973371;28;20050;-68
2023/12/18 02:30:42;;;;;;;1.90;0.47;;;9.60;99.90;;;;;;4970413;28;20108;-68
2023/12/18 02:33:07;;;;;;;0.10;0.10;;;9.60;99.90;;;;;;4972754;28;20039;-68
2023/12/18 02:35:33;;;;;;;0.10;0.10;;;9.60;99.90;;;;;;4963268;28;20493;-68
2023/12/18 02:37:58;;;;;;;0.38;0.28;;;9.60;99.90;;;;;;4974661;28;20161;-68
2023/12/18 02:40:25;;;;;;;0.13;0.13;;;9.60;99.90;;;;;;4961869;28;20567;-68
2023/12/18 02:42:51;;;;;;;0.10;0.10;;;9.60;99.90;;;;;;4975587;28;20074;-68
2023/12/18 02:45:17;;;;;;;0.10;0.10;;;9.60;99.90;;;;;;4972058;28;20155;-68
2023/12/18 02:47:42;;;;;;;35.33;1.67;;;9.60;99.90;;;;;;4970465;28;20050;-68
2023/12/18 02:50:09;;;;;;;0.10;0.10;;;9.60;99.90;;;;;;4965879;28;20055;-68
2023/12/18 02:52:34;;;;;;;0.20;0.20;;;9.60;99.90;;;;;;4966646;28;20073;-68
2023/12/18 02:55:00;;;;;;;0.00;0.00;;;9.50;99.90;;;;;;4969559;28;20042;-68
2023/12/18 02:57:26;;;;;;;0.10;0.10;;;9.50;99.90;;;;;;4966956;28;20092;-68
2023/12/18 02:59:52;;;;;;;2.60;0.73;;;9.50;99.90;;;;;;4973480;28;20047;-68
2023/12/18 03:02:17;;;;;;;0.10;0.10;;;9.50;99.90;;;;;;4981778;28;20046;-68
2023/12/18 03:04:43;;;;;;;0.10;0.10;;;9.50;99.90;;;;;;4966297;28;20208;-68
2023/12/18 03:07:09;;;;;;;0.08;0.08;;;9.50;99.90;;;;;;4965546;28;20043;-68
2023/12/18 03:09:35;;;;;;;0.10;0.10;;;9.50;99.90;;;;;;4963131;28;20045;-68
2023/12/18 03:12:01;;;;;;;0.10;0.10;;;9.50;99.90;;;;;;4972974;28;20409;-67
2023/12/18 03:14:26;;;;;;;0.30;0.30;;;9.50;99.90;;;;;;4973021;28;20471;-68
2023/12/18 03:16:52;;;;;;;1.10;1.00;;;9.50;99.90;;;;;;4964179;28;20413;-68
2023/12/18 03:19:18;;;;;;;0.10;0.10;;;9.50;99.90;;;;;;4964030;28;20047;-67
2023/12/18 03:21:45;;;;;;;0.10;0.10;;;9.60;99.90;;;;;;4986836;28;20062;-68
2023/12/18 03:24:10;;;;;;;0.70;0.68;;;9.50;99.90;;;;;;4961105;28;20053;-67
2023/12/18 03:26:36;;;;;;;0.30;0.30;;;9.50;99.90;;;;;;4975486;28;20046;-68
2023/12/18 03:29:02;;;;;;;0.47;0.47;;;9.50;99.90;;;;;;4964430;28;20074;-68
2023/12/18 03:31:27;;;;;;;0.15;0.15;;;9.50;99.90;;;;;;4960370;28;20471;-68
2023/12/18 03:33:53;;;;;;;2.00;1.10;;;9.50;99.90;;;;;;4971560;28;20090;-68
2023/12/18 03:36:18;;;;;;;0.55;0.55;;;9.50;99.90;;;;;;4964683;28;20047;-68
2023/12/18 03:38:44;;;;;;;0.65;0.55;;;9.40;99.90;;;;;;4970011;28;20049;-68
2023/12/18 03:41:10;;;;;;;0.38;0.38;;;9.40;99.90;;;;;;4966382;28;20078;-68
2023/12/18 03:43:35;;;;;;;0.10;0.10;;;9.40;99.90;;;;;;4969623;28;20359;-67
2023/12/18 03:46:01;;;;;;;0.10;0.10;;;9.40;99.90;;;;;;4971035;28;20046;-68
2023/12/18 03:48:27;;;;;;;0.20;0.20;;;9.40;99.90;;;;;;5001397;28;20073;-68
2023/12/18 03:50:52;;;;;;;0.55;0.55;;;9.40;99.90;;;;;;4970909;28;20061;-67
2023/12/18 03:53:18;;;;;;;0.10;0.10;;;9.40;99.90;;;;;;4966531;28;20035;-68
2023/12/18 03:55:43;;;;;;;0.10;0.10;;;9.40;99.90;;;;;;4964414;28;20782;-68
2023/12/18 03:58:09;;;;;;;0.10;0.10;;;9.40;99.90;;;;;;4969405;28;20387;-68
2023/12/18 04:00:34;;;;;;;0.10;0.10;;;9.40;99.90;;;;;;4978210;28;20042;-68
2023/12/18 04:03:03;;;;;;;2.17;1.02;;;9.40;99.90;;;;;;4971180;28;20046;-68
2023/12/18 04:05:28;;;;;;;0.00;0.00;;;9.40;99.90;;;;;;4970013;28;20078;-68
2023/12/18 04:07:54;;;;;;;0.20;0.20;;;9.40;99.90;;;;;;4960171;28;20089;-68
2023/12/18 04:10:20;;;;;;;0.40;0.40;;;9.50;99.90;;;;;;4976665;28;20050;-68
2023/12/18 04:12:45;;;;;;;0.10;0.10;;;9.50;99.90;;;;;;4972871;28;20046;-68
2023/12/18 04:15:13;;;;;;;0.35;0.35;;;9.50;99.90;;;;;;4971322;28;20383;-68
2023/12/18 04:17:39;;;;;;;2.58;1.08;;;9.40;99.90;;;;;;4959949;28;20093;-68
2023/12/18 04:20:05;;;;;;;9.45;2.08;;;9.50;99.90;;;;;;4978641;28;20042;-68
2023/12/18 04:22:32;;;;;;;0.55;0.55;;;9.50;99.90;;;;;;4970948;28;20413;-68
2023/12/18 04:24:58;;;;;;;0.35;0.35;;;9.50;99.90;;;;;;4962082;28;20566;-67
2023/12/18 04:27:24;;;;;;;0.47;0.30;;;9.50;99.90;;;;;;4956070;28;20054;-68
2023/12/18 04:29:50;;;;;;;0.00;0.00;;;9.50;99.90;;;;;;4961906;28;20137;-68
2023/12/18 04:32:16;;;;;;;0.25;0.25;;;9.50;99.90;;;;;;4965683;28;20054;-68
2023/12/18 04:34:44;;;;;;;0.10;0.10;;;9.50;99.90;;;;;;4958540;28;20043;-68
2023/12/18 04:37:10;;;;;;;0.22;0.22;;;9.50;99.90;;;;;;4977213;28;20483;-68
2023/12/18 04:39:36;;;;;;;0.88;0.88;;;9.50;99.90;;;;;;4969375;28;20053;-68
2023/12/18 04:42:02;;;;;;;1.45;1.35;;;9.60;99.90;;;;;;4962871;28;20098;-68
2023/12/18 04:44:28;;;;;;;0.10;0.10;;;9.50;99.90;;;;;;4964465;28;20047;-68
2023/12/18 04:46:54;;;;;;;0.30;0.30;;;9.60;99.90;;;;;;4972407;28;20151;-68
2023/12/18 04:49:20;;;;;;;0.17;0.17;;;9.50;99.90;;;;;;4969629;28;20039;-68
2023/12/18 04:51:45;;;;;;;2.35;2.15;;;9.50;99.90;;;;;;4963851;28;20969;-68
2023/12/18 04:54:11;;;;;;;3.20;2.22;;;9.50;99.90;;;;;;4969800;28;20041;-67
2023/12/18 04:56:36;;;;;;;0.30;0.30;;;9.50;99.90;;;;;;4970498;28;20042;-68
2023/12/18 04:59:02;;;;;;;0.35;0.35;;;9.50;99.90;;;;;;4968742;28;20058;-68
2023/12/18 05:01:31;;;;;;;1.90;1.33;;;9.50;99.90;;;;;;4967576;28;20047;-68
2023/12/18 05:03:56;;;;;;;0.15;0.15;;;9.50;99.90;;;;;;4970014;28;20053;-68
2023/12/18 05:06:27;;;;;;;0.68;0.68;;;9.50;99.90;;;;;;4973025;28;20047;-68
2023/12/18 05:08:53;;;;;;;0.10;0.10;;;9.50;99.90;;;;;;4966278;28;20066;-68
2023/12/18 05:11:20;;;;;;;0.10;0.10;;;9.40;99.90;;;;;;4974011;28;20125;-68
2023/12/18 05:13:46;;;;;;;5.53;1.63;;;9.40;99.90;;;;;;4961706;28;20510;-68
2023/12/18 05:16:13;;;;;;;3.30;0.35;;;9.50;99.90;;;;;;4970186;28;20051;-67
2023/12/18 05:18:39;;;;;;;0.30;0.30;;;9.40;99.90;;;;;;4978808;28;20243;-68
2023/12/18 05:21:05;;;;;;;0.00;0.00;;;9.40;99.90;;;;;;4974886;28;20121;-68
2023/12/18 05:23:31;;;;;;;0.25;0.25;;;9.40;99.90;;;;;;4959584;28;20142;-68
2023/12/18 05:25:56;;;;;;;3.65;3.30;;;9.40;99.90;;;;;;4963504;28;20618;-68
2023/12/18 05:28:22;;;;;;;1.17;0.47;;;9.50;99.90;;;;;;4970566;28;20075;-68
2023/12/18 05:30:48;;;;;;;0.00;0.00;;;9.40;99.90;;;;;;4961633;28;20098;-68
2023/12/18 05:33:14;;;;;;;0.10;0.10;;;9.40;99.90;;;;;;4963386;28;20043;-68
2023/12/18 05:35:39;;;;;;;0.15;0.15;;;9.50;99.90;;;;;;4963828;28;20040;-68
2023/12/18 05:38:07;;;;;;;0.30;0.30;;;9.40;99.90;;;;;;4974222;28;20050;-68
2023/12/18 05:40:33;;;;;;;0.35;0.35;;;9.40;99.90;;;;;;4975409;28;20109;-68
2023/12/18 05:42:59;;;;;;;0.30;0.30;;;9.50;99.90;;;;;;4964645;28;20051;-68
2023/12/18 05:45:24;;;;;;;2.45;1.90;;;9.40;99.90;;;;;;4961542;28;20039;-67
2023/12/18 05:47:50;;;;;;;1.08;1.08;;;9.40;99.90;;;;;;4967730;28;20055;-68
2023/12/18 05:50:16;;;;;;;0.10;0.10;;;9.40;99.90;;;;;;4967514;28;20042;-68
2023/12/18 05:52:41;;;;;;;0.13;0.13;;;9.40;99.90;;;;;;4959862;28;20045;-68
2023/12/18 05:55:09;;;;;;;0.17;0.17;;;9.40;99.90;;;;;;4965475;28;20138;-68
2023/12/18 05:57:38;;;;;;;0.13;0.13;;;9.50;99.90;;;;;;4967067;28;20504;-68
2023/12/18 06:00:09;;;;;;;0.28;0.28;;;9.40;99.90;;;;;;4961445;28;20054;-67
2023/12/18 06:02:35;;;;;;;0.10;0.10;;;9.40;99.90;;;;;;4971823;28;20054;-68
2023/12/18 06:05:00;;;;;;;0.10;0.10;;;9.50;99.90;;;;;;4970390;28;20341;-68
2023/12/18 06:07:26;;;;;;;3.72;1.17;;;9.40;99.90;;;;;;4974134;28;20042;-68
2023/12/18 06:09:52;;;;;;;0.00;0.00;;;9.40;99.90;;;;;;4962060;28;20051;-68
2023/12/18 06:12:17;;;;;;;0.17;0.17;;;9.40;99.90;;;;;;4970632;28;20043;-67
2023/12/18 06:14:43;;;;;;;0.47;0.47;;;9.50;99.90;;;;;;4968503;28;20069;-68
2023/12/18 06:17:09;;;;;;;0.40;0.40;;;9.50;99.90;;;;;;4972682;28;20123;-67
2023/12/18 06:19:34;;;;;;;0.20;0.20;;;9.40;99.90;;;;;;4970244;28;20122;-68
2023/12/18 06:22:01;;;;;;;0.10;0.10;;;9.40;99.90;;;;;;4965757;28;20541;-68
2023/12/18 06:24:26;;;;;;;2.88;1.58;;;9.40;99.90;;;;;;4960006;28;20065;-68
2023/12/18 06:26:53;;;;;;;0.10;0.10;;;9.40;99.90;;;;;;4980497;28;20055;-68
2023/12/18 06:29:19;;;;;;;0.10;0.10;;;9.40;99.90;;;;;;4962355;28;20055;-68
2023/12/18 06:31:44;;;;;;;0.10;0.10;;;9.40;99.90;;;;;;4967303;28;20090;-68
2023/12/18 06:34:11;;;;;;;4.85;1.65;;;9.50;99.90;;;;;;4961524;28;20537;-67
2023/12/18 06:36:37;;;;;;;0.10;0.10;;;9.40;99.90;;;;;;4973622;28;20128;-68
2023/12/18 06:39:03;;;;;;;0.57;0.57;;;9.40;99.90;;;;;;4975424;28;20090;-68
2023/12/18 06:41:29;;;;;;;0.35;0.35;;;9.50;99.90;;;;;;4968549;28;20039;-68
2023/12/18 06:43:54;;;;;;;1.35;1.25;;;9.50;99.90;;;;;;4959023;28;20055;-67
2023/12/18 06:46:20;;;;;;;1.75;0.70;;;9.50;99.90;;;;;;4975673;28;20170;-67
2023/12/18 06:48:46;;;;;;;0.30;0.30;;;9.50;99.90;;;;;;4968298;28;20043;-67
2023/12/18 06:51:12;;;;;;;0.05;0.05;;;9.50;99.90;;;;;;4965732;28;20046;-67
2023/12/18 06:53:38;;;;;;;5.38;2.17;;;9.50;99.90;;;;;;4969467;28;20043;-67
2023/12/18 06:56:04;;;;;;;0.20;0.20;;;9.50;99.90;;;;;;4960746;28;20047;-68
2023/12/18 06:58:29;;;;;;;0.10;0.10;;;9.50;99.90;;;;;;4971629;28;20579;-68
2023/12/18 07:00:55;;;;;;;0.10;0.10;;;9.50;99.90;;;;;;4963389;28;20038;-69
2023/12/18 07:03:20;;;;;;;0.10;0.10;;;9.50;99.90;;;;;;4964026;28;20049;-68
2023/12/18 07:05:46;;;;;;;5.82;1.95;;;9.50;99.90;;;;;;4972098;28;20106;-68
2023/12/18 07:08:12;;;;;;;0.10;0.10;;;9.50;99.90;;;;;;4958187;28;20039;-68
2023/12/18 07:10:38;;;;;;;4.03;2.70;;;9.50;99.90;;;;;;4969190;28;20133;-68
2023/12/18 07:13:04;;;;;;;0.52;0.52;;;9.50;99.90;;;;;;4968672;28;20142;-68
2023/12/18 07:15:29;;;;;;;0.10;0.10;;;9.50;99.90;;;;;;4967524;28;20043;-68
2023/12/18 07:17:58;;;;;;;0.10;0.10;;;9.50;99.90;;;;;;4972257;28;20137;-68
2023/12/18 07:20:24;;;;;;;3.63;2.00;;;9.50;99.90;;;;;;4958726;28;20051;-68
2023/12/18 07:22:49;;;;;;;0.85;0.57;;;9.50;99.90;;;;;;4964332;28;20046;-68
2023/12/18 07:25:18;;;;;;;1.00;1.00;;;9.50;99.90;;;;;;4958488;28;20114;-68
2023/12/18 07:27:44;;;;;;;0.30;0.30;;;9.50;99.90;;;;;;4969124;28;20076;-68
2023/12/18 07:30:11;;;;;;;0.75;0.75;;;9.60;99.90;;;;;;4965885;28;20042;-68
2023/12/18 07:32:37;;;;;;;0.40;0.40;;;9.50;99.90;;;;;;4967929;28;20042;-68
2023/12/18 07:35:04;;;;;;;1.17;1.15;;;9.50;99.90;;;;;;4962266;28;20051;-68
2023/12/18 07:37:30;;;;;;;0.10;0.10;;;9.50;99.90;;;;;;4958409;28;20047;-68
2023/12/18 07:39:56;;;;;;;0.68;0.68;;;9.50;99.90;;;;;;4959484;28;20051;-68
2023/12/18 07:42:22;;;;;;;0.47;0.47;;;9.40;99.90;;;;;;4977153;28;20114;-68
2023/12/18 07:44:48;;;;;;;1.80;1.67;;;9.40;99.90;;;;;;4971015;28;20526;-68
2023/12/18 07:47:14;;;;;;;1.45;1.35;;;9.30;99.90;;;;;;4965468;28;20129;-68
2023/12/18 07:49:40;;;;;;;1.83;1.73;;;9.30;99.90;;;;;;4973145;28;20100;-68
2023/12/18 07:52:05;;;;;;;0.13;0.13;;;9.20;99.90;;;;;;4961137;28;20043;-68
2023/12/18 07:54:32;;;;;;;1.52;0.82;;;9.10;99.90;;;;;;4959468;28;20174;-68
2023/12/18 07:56:57;;;;;;;0.43;0.43;;;9.00;99.90;;;;;;4979476;28;20054;-68
2023/12/18 07:59:23;;;;;;;0.55;0.55;;;9.00;99.90;;;;;;4968688;28;20039;-68
2023/12/18 08:01:48;;;;;;;0.63;0.63;;;9.00;99.90;;;;;;4969622;28;20053;-68
2023/12/18 08:04:14;;;;;;;3.08;0.73;;;9.00;99.90;;;;;;4967781;28;20126;-68
2023/12/18 08:06:40;;;;;;;0.10;0.10;;;8.90;99.90;;;;;;4965197;28;20082;-67
2023/12/18 08:09:05;;;;;;;3.30;1.83;;;8.90;99.90;;;;;;4976450;28;20050;-68
2023/12/18 08:11:31;;;;;;;0.20;0.20;;;8.90;99.90;;;;;;4965611;28;20093;-68
2023/12/18 08:13:56;;;;;;;0.77;0.77;;;8.80;99.90;;;;;;4959455;28;20047;-68
2023/12/18 08:16:25;;;;;;;1.27;1.17;;;8.80;99.90;;;;;;4968365;28;20039;-68
2023/12/18 08:18:51;;;;;;;0.82;0.82;;;8.80;99.90;;;;;;4968912;28;20134;-68
2023/12/18 08:21:16;;;;;;;0.73;0.73;;;8.80;99.90;;;;;;4961748;28;20443;-68
2023/12/18 08:23:42;;;;;;;0.20;0.20;;;8.80;99.90;;;;;;4967565;28;20185;-68
2023/12/18 08:26:11;;;;;;;0.28;0.28;;;8.80;99.90;;;;;;4963527;28;20051;-68
2023/12/18 08:28:44;;;;;;;0.20;0.20;;;8.80;99.90;;;;;;4964452;28;20046;-68
2023/12/18 08:31:11;;;;;;;1.63;1.57;;;8.80;99.90;;;;;;4968139;28;20489;-68
2023/12/18 08:33:38;;;;;;;2.72;1.15;;;8.80;99.90;;;;;;4971631;28;20039;-68
2023/12/18 08:36:04;;;;;;;0.47;0.47;;;8.70;99.90;;;;;;4961298;28;20047;-68
2023/12/18 08:38:29;;;;;;;0.40;0.40;;;8.70;99.90;;;;;;4972555;28;20096;-68
2023/12/18 08:40:55;;;;;;;0.10;0.10;;;8.70;99.90;;;;;;4974628;28;20039;-68
2023/12/18 08:43:20;;;;;;;0.63;0.63;;;8.70;99.90;;;;;;4967183;28;20193;-68
2023/12/18 08:45:46;;;;;;;0.98;0.28;;;8.70;99.90;;;;;;4969188;28;20093;-68
2023/12/18 08:48:12;;;;;;;0.15;0.15;;;8.70;99.90;;;;;;4969301;28;20039;-68
2023/12/18 08:50:37;;;;;;;1.75;1.65;;;8.70;99.90;;;;;;4962638;28;20054;-68
2023/12/18 08:53:04;;;;;;;1.27;1.17;;;8.70;99.90;;;;;;4957181;28;20046;-67
2023/12/18 08:55:29;;;;;;;0.22;0.22;;;8.70;99.90;;;;;;4960000;28;20087;-68
2023/12/18 08:57:55;;;;;;;3.75;2.78;;;8.70;99.90;;;;;;4975773;28;20078;-67
2023/12/18 09:00:20;;;;;;;2.00;0.95;;;8.70;99.90;;;;;;4966251;28;20119;-67
2023/12/18 09:02:46;;;;;;;0.45;0.45;;;8.70;99.90;;;;;;4963306;28;20579;-67
2023/12/18 09:05:12;;;;;;;0.52;0.52;;;8.70;99.90;;;;;;4966396;28;20115;-67
2023/12/18 09:07:37;;;;;;;0.57;0.57;;;8.70;99.90;;;;;;4966887;28;20043;-67
2023/12/18 09:10:03;;;;;;;0.68;0.68;;;8.60;99.90;;;;;;4960812;28;20422;-67
2023/12/18 09:12:29;;;;;;;0.65;0.65;;;8.70;99.90;;;;;;4969808;28;20054;-67
2023/12/18 09:14:54;;;;;;;0.75;0.75;;;8.60;99.90;;;;;;4962641;28;20068;-68
2023/12/18 09:17:20;;;;;;;0.30;0.30;;;8.60;99.90;;;;;;4969467;28;20097;-68
2023/12/18 09:19:45;;;;;;;0.93;0.45;;;8.60;99.90;;;;;;4962563;28;20109;-68
2023/12/18 09:22:11;;;;;;;0.45;0.45;;;8.70;99.90;;;;;;4963527;28;20053;-68
2023/12/18 09:24:36;;;;;;;1.45;0.88;;;8.70;99.90;;;;;;4972460;28;20049;-68
2023/12/18 09:27:03;;;;;;;0.32;0.32;;;8.70;99.90;;;;;;4965197;28;20385;-68
2023/12/18 09:29:29;;;;;;;0.10;0.10;;;8.70;99.90;;;;;;4961220;28;20043;-68
2023/12/18 09:31:54;;;;;;;0.15;0.15;;;8.70;99.90;;;;;;4966888;28;20043;-68
2023/12/18 09:34:20;;;;;;;0.40;0.40;;;8.70;99.90;;;;;;4963688;28;20047;-68
2023/12/18 09:36:45;;;;;;;0.95;0.90;;;8.80;99.90;;;;;;4965275;28;20059;-68
2023/12/18 09:39:11;;;;;;;2.60;2.40;;;8.80;99.90;;;;;;4967892;28;20047;-68
2023/12/18 09:41:37;;;;;;;0.20;0.20;;;8.80;99.90;;;;;;4985784;28;20121;-68
2023/12/18 09:44:03;;;;;;;0.40;0.40;;;8.80;99.90;;;;;;4980655;28;20464;-68
2023/12/18 09:46:29;;;;;;;38.83;2.15;;;8.90;99.90;;;;;;4961021;28;20050;-68
2023/12/18 09:48:55;;;;;;;0.20;0.20;;;8.80;99.90;;;;;;4964806;28;20039;-68
2023/12/18 09:51:23;;;;;;;2.20;1.65;;;8.90;99.90;;;;;;4964920;28;20065;-68
2023/12/18 09:53:50;;;;;;;17.55;1.95;;;8.90;99.90;;;;;;4959460;28;20634;-68
2023/12/18 09:56:17;;;;;;;0.20;0.20;;;8.90;99.90;;;;;;4964566;28;20055;-68
2023/12/18 09:58:45;;;;;;;6.85;1.40;;;8.90;99.90;;;;;;4964724;28;20482;-68
2023/12/18 10:01:10;;;;;;;0.90;0.90;;;8.90;99.90;;;;;;4978957;28;20065;-68
2023/12/18 10:03:36;;;;;;;3.83;2.70;;;8.90;99.90;;;;;;4970123;28;20039;-68
2023/12/18 10:06:03;;;;;;;0.17;0.17;;;8.90;99.90;;;;;;4963498;28;20478;-68
2023/12/18 10:08:28;;;;;;;1.58;1.48;;;8.90;99.90;;;;;;4966467;28;20053;-68
2023/12/18 10:10:54;;;;;;;0.52;0.52;;;8.90;99.90;;;;;;4963953;28;20051;-68
2023/12/18 10:13:19;;;;;;;1.13;1.08;;;8.90;99.90;;;;;;4967051;28;20590;-68
2023/12/18 10:15:45;;;;;;;0.70;0.70;;;8.80;99.90;;;;;;4970201;28;20061;-68
2023/12/18 10:18:11;;;;;;;0.17;0.17;;;8.80;99.90;;;;;;4973035;28;20074;-68
2023/12/18 10:20:38;;;;;;;5.15;1.63;;;8.90;99.90;;;;;;4961491;28;20062;-68
2023/12/18 10:23:05;;;;;;;0.68;0.68;;;8.80;99.90;;;;;;4963559;28;20043;-68
2023/12/18 10:25:33;;;;;;;2.92;2.72;;;8.80;99.90;;;;;;4968704;28;20078;-68
2023/12/18 10:27:59;;;;;;;3.10;1.92;;;8.80;99.90;;;;;;4971508;28;20050;-68
2023/12/18 10:30:27;;;;;;;0.35;0.35;;;8.80;99.90;;;;;;4959902;28;20502;-68
2023/12/18 10:32:53;;;;;;;0.98;0.80;;;8.80;99.90;;;;;;4965936;28;20054;-68
2023/12/18 10:35:18;;;;;;;0.32;0.32;;;8.80;99.90;;;;;;4963436;28;20394;-68
2023/12/18 10:37:51;;;;;;;0.70;0.70;;;8.80;99.90;;;;;;4956603;28;20052;-69
2023/12/18 10:40:23;;;;;;;0.80;0.80;;;8.80;99.90;;;;;;4964615;28;20042;-69
2023/12/18 10:43:21;;;;;;;2.85;1.65;;;8.80;99.90;;;;;;4970204;28;20066;-69
2023/12/18 10:45:48;;;;;;;0.28;0.28;;;8.80;99.90;;;;;;4967835;28;20043;-69
2023/12/18 10:48:16;;;;;;;0.77;0.77;;;8.90;99.90;;;;;;4971397;28;20042;-69
2023/12/18 10:50:42;;;;;;;0.57;0.57;;;8.80;99.90;;;;;;4967060;28;20042;-69
2023/12/18 10:53:11;;;;;;;1.73;1.60;;;8.90;99.90;;;;;;4957979;28;20043;-69
2023/12/18 10:55:38;;;;;;;0.60;0.60;;;8.90;99.90;;;;;;4960330;28;20509;-69
2023/12/18 10:58:05;;;;;;;0.70;0.70;;;8.90;99.90;;;;;;4966629;28;20497;-70
2023/12/18 11:00:33;;;;;;;4.25;2.85;;;8.90;99.90;;;;;;4968125;28;20044;-70
2023/12/18 11:02:59;;;;;;;0.95;0.90;;;9.20;99.90;;;;;;4956772;28;20051;-71
2023/12/18 11:05:26;;;;;;;0.10;0.10;;;9.10;99.90;;;;;;4966074;28;20528;-70
2023/12/18 11:07:53;;;;;;;0.30;0.30;;;9.10;99.90;;;;;;4958158;28;20059;-70
2023/12/18 11:10:19;;;;;;;0.77;0.77;;;9.10;99.90;;;;;;4977891;28;20058;-69
2023/12/18 11:12:49;;;;;;;0.55;0.55;;;9.10;99.90;;;;;;4966785;28;20090;-70
2023/12/18 11:15:24;;;;;;;0.40;0.40;;;9.10;99.90;;;;;;4964329;28;20102;-67
2023/12/18 11:18:01;;;;;;;8.25;3.10;;;9.10;99.90;;;;;;4961536;28;20052;-70
2023/12/18 11:20:35;;;;;;;1.58;1.48;;;9.20;99.90;;;;;;4958311;28;20177;-69
2023/12/18 11:23:01;;;;;;;;;;;9.20;99.90;;;;;;4964981;28;20707;-70
2023/12/18 11:25:47;;;;;;;0.73;0.73;;;9.20;99.90;;;;;;4969604;28;19926;-70
2023/12/18 11:28:12;;;;;;;0.10;0.10;;;9.20;99.90;;;;;;4964885;28;20055;-69
2023/12/18 11:30:43;;;;;;;5.47;1.00;;;9.30;99.90;;;;;;4967365;28;20049;-69
2023/12/18 11:33:10;;;;;;;3.88;1.48;;;9.30;99.90;;;;;;4966608;28;20069;-70
2023/12/18 11:35:37;;;;;;;1.40;1.30;;;9.30;99.90;;;;;;4962281;28;20058;-70
2023/12/18 11:38:05;;;;;;;4.22;2.60;;;9.30;99.90;;;;;;4975893;28;20047;-70
2023/12/18 11:40:31;;;;;;;3.15;0.80;;;9.30;99.90;;;;;;4966097;28;20050;-70
2023/12/18 11:42:57;;;;;;;0.15;0.15;;;9.30;99.90;;;;;;4969937;28;20042;-69
2023/12/18 11:45:24;;;;;;;0.20;0.20;;;9.40;99.90;;;;;;4970267;28;20131;-70
2023/12/18 11:47:57;;;;;;;0.77;0.73;;;9.40;99.90;;;;;;4962351;28;20442;-70
2023/12/18 11:50:26;;;;;;;0.32;0.32;;;9.40;99.90;;;;;;4966062;28;20078;-70
2023/12/18 11:52:56;;;;;;;1.75;1.55;;;9.50;99.90;;;;;;4967928;28;20043;-70
2023/12/18 11:55:39;;;;;;;1.15;0.93;;;9.50;99.90;;;;;;4968594;28;20050;-70
2023/12/18 11:58:06;;;;;;;3.92;2.20;;;9.50;99.90;;;;;;4968962;28;20050;-70
2023/12/18 12:00:32;;;;;;;0.30;0.30;;;9.60;99.90;;;;;;4965347;28;20062;-70
2023/12/18 12:02:58;;;;;;;0.10;0.10;;;9.60;99.90;;;;;;4969990;28;20071;-70
2023/12/18 12:05:28;;;;;;;2.30;0.68;;;9.60;99.90;;;;;;4969943;28;20047;-70
2023/12/18 12:07:54;;;;;;;0.45;0.45;;;9.60;99.90;;;;;;4961291;28;20055;-70
2023/12/18 12:10:21;;;;;;;0.10;0.10;;;9.60;99.90;;;;;;4986389;28;20042;-70
2023/12/18 12:12:58;;;;;;;0.20;0.20;;;9.60;99.90;;;;;;4965870;28;20499;-70
2023/12/18 12:15:24;;;;;;;0.13;0.13;;;9.60;99.90;;;;;;4961342;28;20122;-70
2023/12/18 12:18:10;;;;;;;0.22;0.22;;;9.60;99.90;;;;;;4963408;28;20439;-70
2023/12/18 12:20:35;;;;;;;1.55;1.13;;;9.60;99.90;;;;;;4962358;28;20054;-70
2023/12/18 12:23:01;;;;;;;0.25;0.25;;;9.60;99.90;;;;;;4971449;28;20050;-70
2023/12/18 12:25:27;;;;;;;0.10;0.10;;;9.50;99.90;;;;;;4961908;28;20038;-70
2023/12/18 12:27:52;;;;;;;0.70;0.70;;;9.50;99.90;;;;;;4953751;28;20105;-70
2023/12/18 12:30:18;;;;;;;0.68;0.68;;;9.50;99.90;;;;;;4960461;28;20051;-70
2023/12/18 12:32:46;;;;;;;0.70;0.70;;;9.50;99.90;;;;;;4968707;28;20047;-73
2023/12/18 12:35:12;;;;;;;2.83;0.93;;;9.40;99.90;;;;;;4963813;28;20050;-70
2023/12/18 12:37:40;;;;;;;1.85;1.33;;;9.40;99.90;;;;;;4963342;28;20055;-70
2023/12/18 12:40:06;;;;;;;0.10;0.10;;;9.40;99.90;;;;;;4963095;28;20074;-70
2023/12/18 12:42:37;;;;;;;1.35;1.27;;;9.30;99.90;;;;;;4970688;28;20129;-70
2023/12/18 12:45:04;;;;;;;2.30;1.33;;;9.30;99.90;;;;;;4962327;28;20111;-70
2023/12/18 12:47:30;;;;;;;0.10;0.10;;;9.40;99.90;;;;;;4962640;28;20115;-71
2023/12/18 12:50:02;;;;;;;0.60;0.60;;;9.40;99.90;;;;;;4970202;28;20047;-71
2023/12/18 12:52:29;;;;;;;0.65;0.65;;;9.40;99.90;;;;;;4959868;28;20105;-71
2023/12/18 12:54:54;;;;;;;0.40;0.40;;;9.40;99.90;;;;;;4963826;28;20142;-71